createdAt,value
2019-02-20T00:00:27.098Z,82.57
2019-02-20T00:02:55.992Z,38.83
2019-02-20T00:05:24.806Z,29.70
2019-02-20T00:07:53.618Z,27.97
2019-02-20T00:10:22.660Z,28.00
2019-02-20T00:12:51.464Z,29.87
2019-02-20T00:15:20.295Z,34.60
2019-02-20T00:17:49.176Z,34.53
2019-02-20T00:20:17.989Z,40.47
2019-02-20T00:22:46.790Z,42.90
2019-02-20T00:25:15.755Z,44.03
2019-02-20T00:27:44.575Z,37.50
2019-02-20T00:30:13.478Z,29.87
2019-02-20T00:32:42.433Z,25.87
2019-02-20T00:35:11.245Z,24.17
2019-02-20T00:37:40.053Z,35.33
2019-02-20T00:40:11.031Z,36.83
2019-02-20T00:42:39.835Z,28.00
2019-02-20T00:45:31.172Z,30.23
2019-02-20T00:48:01.539Z,26.23
2019-02-20T00:50:31.927Z,23.50
2019-02-20T00:53:05.140Z,22.43
2019-02-20T00:55:33.992Z,21.87
2019-02-20T00:58:02.816Z,22.40
2019-02-20T01:00:31.665Z,27.53
2019-02-20T01:03:00.474Z,24.17
2019-02-20T01:05:29.276Z,29.80
2019-02-20T01:07:58.137Z,28.30
2019-02-20T01:10:26.951Z,28.17
2019-02-20T01:12:55.773Z,27.80
2019-02-20T01:15:24.624Z,27.20
2019-02-20T01:17:53.581Z,35.93
2019-02-20T01:20:22.388Z,30.03
2019-02-20T01:22:59.618Z,30.87
2019-02-20T01:25:21.722Z,29.50
2019-02-20T01:27:50.449Z,28.10
2019-02-20T01:30:19.339Z,28.93
2019-02-20T01:32:48.063Z,30.93
2019-02-20T01:35:16.796Z,28.83
2019-02-20T01:37:45.988Z,27.37
2019-02-20T01:40:14.716Z,25.67
2019-02-20T01:42:43.441Z,26.50
2019-02-20T01:45:12.863Z,26.83
2019-02-20T01:47:41.583Z,24.63
2019-02-20T01:50:10.406Z,25.47
2019-02-20T01:52:39.288Z,24.33
2019-02-20T01:55:09.032Z,22.43
2019-02-20T01:57:37.758Z,24.87
2019-02-20T02:00:09.457Z,25.70
2019-02-20T02:02:38.196Z,23.33
2019-02-20T02:05:14.765Z,24.70
2019-02-20T02:07:37.797Z,26.20
2019-02-20T02:10:08.521Z,25.83
2019-02-20T02:12:37.245Z,26.43
2019-02-20T02:15:07.829Z,29.57
2019-02-20T02:17:36.562Z,28.37
2019-02-20T02:20:07.838Z,26.67
2019-02-20T02:22:36.711Z,26.30
2019-02-20T02:25:06.535Z,26.60
2019-02-20T02:27:35.264Z,29.20
2019-02-20T02:30:05.610Z,28.07
2019-02-20T02:32:34.323Z,27.13
2019-02-20T02:35:03.041Z,27.40
2019-02-20T02:37:32.260Z,26.87
2019-02-20T02:40:00.986Z,25.43
2019-02-20T02:42:29.713Z,27.00
2019-02-20T02:44:58.821Z,29.87
2019-02-20T02:47:27.548Z,29.63
2019-02-20T02:49:56.274Z,27.90
2019-02-20T02:52:25.031Z,35.43
2019-02-20T02:54:53.759Z,28.73
2019-02-20T02:57:22.479Z,35.07
2019-02-20T02:59:51.248Z,26.80
2019-02-20T03:02:19.992Z,25.20
2019-02-20T03:04:48.709Z,26.07
2019-02-20T03:07:17.623Z,28.03
2019-02-20T03:09:46.712Z,27.77
2019-02-20T03:12:15.435Z,25.87
2019-02-20T03:14:44.208Z,29.73
2019-02-20T03:17:12.932Z,30.67
2019-02-20T03:19:41.662Z,30.60
2019-02-20T03:22:11.097Z,32.20
2019-02-20T03:24:39.810Z,37.63
2019-02-20T03:27:08.538Z,34.10
2019-02-20T03:29:37.402Z,32.10
2019-02-20T03:32:06.131Z,30.73
2019-02-20T03:34:34.861Z,28.87
2019-02-20T03:37:04.137Z,28.60
2019-02-20T03:39:32.954Z,29.33
2019-02-20T03:42:01.705Z,28.37
2019-02-20T03:44:30.590Z,29.13
2019-02-20T03:46:59.315Z,32.87
2019-02-20T03:49:28.053Z,38.73
2019-02-20T03:51:56.811Z,34.40
2019-02-20T03:54:25.586Z,34.63
2019-02-20T03:56:54.351Z,35.73
2019-02-20T03:59:23.162Z,34.13
2019-02-20T04:01:51.894Z,31.93
2019-02-20T04:04:20.611Z,31.07
2019-02-20T04:06:49.769Z,31.33
2019-02-20T04:09:18.503Z,31.50
2019-02-20T04:11:47.242Z,32.53
2019-02-20T04:14:16.344Z,32.73
2019-02-20T04:16:45.068Z,33.67
2019-02-20T04:19:13.785Z,33.80
2019-02-20T04:21:42.670Z,37.13
2019-02-20T04:24:11.406Z,55.33
2019-02-20T04:26:40.146Z,63.13
2019-02-20T04:29:09.052Z,71.53
2019-02-20T04:31:37.783Z,52.40
2019-02-20T04:34:06.504Z,44.13
2019-02-20T04:36:35.387Z,37.93
2019-02-20T04:39:04.918Z,38.20
2019-02-20T04:41:33.665Z,37.93
2019-02-20T04:44:02.508Z,42.40
2019-02-20T04:46:31.247Z,43.37
2019-02-20T04:48:59.981Z,48.87
2019-02-20T04:51:28.873Z,58.77
2019-02-20T04:53:57.589Z,125.80
2019-02-20T04:56:26.327Z,183.07
2019-02-20T04:58:59.953Z,173.77
2019-02-20T05:01:28.796Z,167.33
2019-02-20T05:03:58.986Z,131.53
2019-02-20T05:06:27.870Z,98.10
2019-02-20T05:08:56.619Z,95.70
2019-02-20T05:11:25.345Z,62.23
2019-02-20T05:13:54.311Z,70.43
2019-02-20T05:16:23.043Z,58.53
2019-02-20T05:18:51.781Z,57.00
2019-02-20T05:21:20.559Z,96.17
2019-02-20T05:23:49.289Z,56.97
2019-02-20T05:26:18.033Z,32.27
2019-02-20T05:28:46.909Z,35.93
2019-02-20T05:31:16.537Z,36.20
2019-02-20T05:33:45.552Z,38.30
2019-02-20T05:36:14.426Z,72.13
2019-02-20T05:38:43.156Z,100.93
2019-02-20T05:41:11.889Z,55.07
2019-02-20T05:43:40.775Z,60.67
2019-02-20T05:46:09.505Z,49.97
2019-02-20T05:48:38.233Z,42.70
2019-02-20T05:51:07.127Z,43.20
2019-02-20T05:53:35.859Z,47.33
2019-02-20T05:56:04.591Z,44.27
2019-02-20T05:58:33.367Z,51.47
2019-02-20T06:01:02.096Z,50.53
2019-02-20T06:03:30.827Z,58.93
2019-02-20T06:05:59.612Z,81.10
2019-02-20T06:08:28.354Z,77.77
2019-02-20T06:10:57.081Z,55.43
2019-02-20T06:13:25.883Z,57.47
2019-02-20T06:15:54.603Z,94.93
2019-02-20T06:18:23.352Z,82.10
2019-02-20T06:20:52.551Z,76.10
2019-02-20T06:23:21.279Z,111.63
2019-02-20T06:25:50.020Z,57.90
2019-02-20T06:28:18.857Z,55.87
2019-02-20T06:30:47.585Z,53.50
2019-02-20T06:33:16.334Z,52.40
2019-02-20T06:35:45.209Z,49.50
2019-02-20T06:38:13.940Z,49.83
2019-02-20T06:40:42.739Z,50.30
2019-02-20T06:43:11.554Z,46.40
2019-02-20T06:45:40.277Z,48.00
2019-02-20T06:48:09.018Z,44.13
2019-02-20T06:50:38.205Z,42.60
2019-02-20T06:53:06.932Z,42.60
2019-02-20T06:55:35.658Z,42.00
2019-02-20T06:58:04.448Z,39.97
2019-02-20T07:00:33.175Z,38.00
2019-02-20T07:03:01.932Z,35.10
2019-02-20T07:05:38.177Z,27.57
2019-02-20T07:08:21.589Z,30.13
2019-02-20T07:11:05.344Z,25.93
2019-02-20T07:13:53.382Z,35.70
2019-02-20T07:16:34.002Z,35.47
2019-02-20T07:19:05.638Z,27.17
2019-02-20T07:21:42.943Z,28.77
2019-02-20T07:24:26.732Z,28.47
2019-02-20T07:27:17.581Z,27.83
2019-02-20T07:29:51.953Z,48.40
2019-02-20T07:32:20.849Z,33.63
2019-02-20T07:34:49.608Z,39.57
2019-02-20T07:37:18.300Z,30.03
2019-02-20T07:39:47.088Z,36.73
2019-02-20T07:42:15.827Z,26.53
2019-02-20T07:44:44.954Z,26.47
2019-02-20T07:47:13.773Z,24.83
2019-02-20T07:49:42.515Z,24.17
2019-02-20T07:52:11.233Z,26.17
2019-02-20T07:54:40.109Z,28.73
2019-02-20T07:57:08.831Z,24.30
2019-02-20T07:59:37.572Z,29.33
2019-02-20T08:02:06.465Z,26.67
2019-02-20T08:04:35.205Z,25.93
2019-02-20T08:07:03.932Z,30.20
2019-02-20T08:09:32.975Z,31.50
2019-02-20T08:12:01.725Z,32.00
2019-02-20T08:14:30.602Z,32.07
2019-02-20T08:16:59.398Z,34.47
2019-02-20T08:19:28.134Z,33.90
2019-02-20T08:21:56.871Z,36.43
2019-02-20T08:24:25.902Z,34.57
2019-02-20T08:26:54.625Z,34.90
2019-02-20T08:29:23.372Z,33.00
2019-02-20T08:31:53.890Z,33.00
2019-02-20T08:34:22.844Z,31.47
2019-02-20T08:36:51.561Z,27.87
2019-02-20T08:39:20.448Z,26.43
2019-02-20T08:41:49.199Z,24.90
2019-02-20T08:44:17.930Z,23.97
2019-02-20T08:46:46.703Z,20.37
2019-02-20T08:49:15.444Z,19.70
2019-02-20T08:51:44.175Z,19.90
2019-02-20T08:54:13.058Z,18.83
2019-02-20T08:56:41.791Z,19.20
2019-02-20T08:59:10.524Z,19.60
2019-02-20T09:01:39.425Z,18.13
2019-02-20T09:04:08.155Z,19.53
2019-02-20T09:06:36.898Z,19.17
2019-02-20T09:09:06.601Z,20.37
2019-02-20T09:11:35.342Z,18.80
2019-02-20T09:14:04.078Z,18.80
2019-02-20T09:16:32.864Z,19.47
2019-02-20T09:19:01.602Z,19.93
2019-02-20T09:21:30.339Z,19.97
2019-02-20T09:23:59.393Z,19.47
2019-02-20T09:26:28.165Z,20.20
2019-02-20T09:28:56.995Z,21.60
2019-02-20T09:31:25.865Z,19.10
2019-02-20T09:33:54.603Z,18.80
2019-02-20T09:36:23.338Z,18.80
2019-02-20T09:38:52.156Z,17.83
2019-02-20T09:41:20.887Z,17.13
2019-02-20T09:43:49.627Z,16.17
2019-02-20T09:46:18.516Z,14.47
2019-02-20T09:48:47.246Z,14.13
2019-02-20T09:51:15.971Z,13.77
2019-02-20T09:53:44.774Z,14.93
2019-02-20T09:56:16.043Z,15.60
2019-02-20T09:58:43.968Z,15.77
2019-02-20T10:01:12.997Z,17.23
2019-02-20T10:03:41.762Z,15.53
2019-02-20T10:06:10.487Z,17.07
2019-02-20T10:08:39.251Z,16.03
2019-02-20T10:11:07.993Z,17.23
2019-02-20T10:13:36.730Z,21.83
2019-02-20T10:16:05.611Z,17.33
2019-02-20T10:18:34.362Z,17.00
2019-02-20T10:21:03.084Z,15.97
2019-02-20T10:23:31.971Z,16.43
2019-02-20T10:26:01.317Z,15.57
2019-02-20T10:28:30.217Z,14.27
2019-02-20T10:30:59.093Z,12.67
2019-02-20T10:33:27.975Z,13.60
2019-02-20T10:35:56.707Z,13.07
2019-02-20T10:38:25.676Z,12.30
2019-02-20T10:40:54.413Z,11.80
2019-02-20T10:43:23.151Z,10.63
2019-02-20T10:45:52.386Z,11.93
2019-02-20T10:48:21.117Z,11.97
2019-02-20T10:50:49.884Z,11.23
2019-02-20T10:53:18.762Z,12.07
2019-02-20T10:55:50.669Z,11.43
2019-02-20T10:58:19.406Z,10.70
2019-02-20T11:00:48.246Z,11.53
2019-02-20T11:03:16.977Z,12.40
2019-02-20T11:05:45.727Z,10.37
2019-02-20T11:08:14.883Z,10.97
2019-02-20T11:10:43.613Z,9.03
2019-02-20T11:13:12.350Z,10.90
2019-02-20T11:15:41.128Z,10.80
2019-02-20T11:18:09.865Z,10.93
2019-02-20T11:20:38.583Z,9.77
2019-02-20T11:23:07.468Z,10.13
2019-02-20T11:25:36.208Z,10.67
2019-02-20T11:28:04.955Z,11.03
2019-02-20T11:30:33.829Z,9.93
2019-02-20T11:33:03.444Z,12.00
2019-02-20T11:35:32.415Z,11.50
2019-02-20T11:38:01.311Z,10.70
2019-02-20T11:40:30.033Z,10.27
2019-02-20T11:42:58.767Z,8.87
2019-02-20T11:45:27.661Z,9.53
2019-02-20T11:47:56.383Z,7.07
2019-02-20T11:50:25.118Z,8.67
2019-02-20T11:52:53.984Z,9.77
2019-02-20T11:55:22.745Z,20.60
2019-02-20T11:57:51.489Z,8.97
2019-02-20T12:00:20.424Z,7.23
2019-02-20T12:02:49.157Z,8.33
2019-02-20T12:05:17.884Z,7.60
2019-02-20T12:07:46.665Z,8.20
2019-02-20T12:10:17.751Z,7.20
2019-02-20T12:12:46.478Z,7.43
2019-02-20T12:15:15.247Z,7.40
2019-02-20T12:17:43.988Z,7.93
2019-02-20T12:20:12.912Z,5.93
2019-02-20T12:22:41.719Z,7.53
2019-02-20T12:25:11.025Z,8.03
2019-02-20T12:27:39.743Z,6.80
2019-02-20T12:30:12.633Z,7.00
2019-02-20T12:32:41.656Z,7.73
2019-02-20T12:35:10.487Z,7.93
2019-02-20T12:37:39.467Z,8.30
2019-02-20T12:40:09.683Z,7.53
2019-02-20T12:42:38.467Z,7.90
2019-02-20T12:45:10.512Z,8.37
2019-02-20T12:47:39.239Z,7.93
2019-02-20T12:50:10.462Z,8.23
2019-02-20T12:52:39.348Z,8.30
2019-02-20T12:55:09.076Z,8.80
2019-02-20T12:57:37.798Z,7.60
2019-02-20T13:00:09.821Z,9.47
2019-02-20T13:02:38.559Z,11.30
2019-02-20T13:05:08.083Z,9.40
2019-02-20T13:07:36.883Z,8.00
2019-02-20T13:10:06.012Z,8.63
2019-02-20T13:12:34.744Z,7.63
2019-02-20T13:15:03.963Z,7.93
2019-02-20T13:17:32.721Z,7.10
2019-02-20T13:20:01.490Z,7.53
2019-02-20T13:22:30.622Z,7.97
2019-02-20T13:24:59.341Z,7.33
2019-02-20T13:27:28.059Z,8.17
2019-02-20T13:29:56.917Z,9.77
2019-02-20T13:32:25.643Z,8.73
2019-02-20T13:34:54.365Z,8.07
2019-02-20T13:37:23.134Z,7.77
2019-02-20T13:39:52.202Z,8.57
2019-02-20T13:42:21.206Z,8.37
2019-02-20T13:44:50.170Z,9.10
2019-02-20T13:47:18.898Z,10.23
2019-02-20T13:49:47.626Z,9.93
2019-02-20T13:52:16.608Z,11.33
2019-02-20T13:54:45.344Z,12.20
2019-02-20T13:57:14.057Z,10.07
2019-02-20T13:59:42.944Z,11.37
2019-02-20T14:02:11.669Z,10.90
2019-02-20T14:04:40.401Z,10.33
2019-02-20T14:07:09.169Z,9.70
2019-02-20T14:09:37.913Z,11.57
2019-02-20T14:12:07.279Z,10.40
2019-02-20T14:14:36.630Z,9.77
2019-02-20T14:17:05.355Z,11.33
2019-02-20T14:19:34.077Z,13.30
2019-02-20T14:22:04.231Z,9.63
2019-02-20T14:24:32.950Z,9.20
2019-02-20T14:27:10.264Z,9.90
2019-02-20T14:29:32.407Z,10.17
2019-02-20T14:32:01.161Z,11.40
2019-02-20T14:34:29.878Z,9.53
2019-02-20T14:36:59.175Z,10.33
2019-02-20T14:39:27.901Z,9.57
2019-02-20T14:41:56.636Z,12.93
2019-02-20T14:44:25.752Z,9.50
2019-02-20T14:46:54.660Z,8.70
2019-02-20T14:49:23.389Z,9.83
2019-02-20T14:51:52.346Z,9.13
2019-02-20T14:54:21.080Z,9.63
2019-02-20T14:56:49.805Z,14.13
2019-02-20T14:59:18.604Z,13.60
2019-02-20T15:01:47.348Z,10.90
2019-02-20T15:04:16.073Z,12.47
2019-02-20T15:06:45.261Z,17.40
2019-02-20T15:09:13.989Z,17.13
2019-02-20T15:11:42.710Z,20.63
2019-02-20T15:14:11.686Z,14.13
2019-02-20T15:16:40.422Z,16.97
2019-02-20T15:19:09.421Z,29.10
2019-02-20T15:21:38.192Z,14.40
2019-02-20T15:24:06.937Z,17.53
2019-02-20T15:26:35.665Z,12.93
2019-02-20T15:29:04.637Z,18.43
2019-02-20T15:31:34.042Z,14.40
2019-02-20T15:34:04.863Z,15.83
2019-02-20T15:36:33.850Z,15.73
2019-02-20T15:39:02.584Z,15.10
2019-02-20T15:41:35.388Z,17.23
2019-02-20T15:44:04.696Z,14.83
2019-02-20T15:46:33.414Z,16.97
2019-02-20T15:49:02.338Z,17.47
2019-02-20T15:51:31.533Z,18.20
2019-02-20T15:54:00.277Z,25.13
2019-02-20T15:56:29.005Z,24.67
2019-02-20T15:58:57.785Z,21.93
2019-02-20T16:01:26.513Z,18.27
2019-02-20T16:03:55.250Z,19.87
2019-02-20T16:06:24.404Z,18.83
2019-02-20T16:08:53.110Z,16.00
2019-02-20T16:11:21.842Z,15.00
2019-02-20T16:13:50.738Z,21.40
2019-02-20T16:16:19.468Z,25.33
2019-02-20T16:18:48.200Z,31.37
2019-02-20T16:21:17.044Z,19.93
2019-02-20T16:23:45.782Z,18.90
2019-02-20T16:26:14.509Z,19.63
2019-02-20T16:28:43.405Z,18.97
2019-02-20T16:31:12.124Z,18.23
2019-02-20T16:33:40.885Z,21.80
2019-02-20T16:36:10.132Z,19.17
2019-02-20T16:38:39.192Z,23.70
2019-02-20T16:41:07.920Z,29.50
2019-02-20T16:43:36.896Z,27.90
2019-02-20T16:46:05.733Z,55.40
2019-02-20T16:48:34.455Z,40.57
2019-02-20T16:51:03.990Z,24.20
2019-02-20T16:53:32.800Z,25.93
2019-02-20T16:56:01.687Z,17.90
2019-02-20T16:58:30.549Z,21.63
2019-02-20T17:00:59.275Z,20.50
2019-02-20T17:03:28.001Z,21.17
2019-02-20T17:05:57.119Z,22.47
2019-02-20T17:08:26.289Z,15.20
2019-02-20T17:10:55.943Z,20.37
2019-02-20T17:13:24.814Z,19.13
2019-02-20T17:15:54.150Z,20.70
2019-02-20T17:18:22.907Z,26.03
2019-02-20T17:20:52.103Z,25.00
2019-02-20T17:23:20.824Z,20.10
2019-02-20T17:25:49.555Z,20.67
2019-02-20T17:28:18.426Z,25.27
2019-02-20T17:30:47.145Z,24.27
2019-02-20T17:33:15.870Z,24.50
2019-02-20T17:35:44.681Z,21.07
2019-02-20T17:38:13.818Z,22.10
2019-02-20T17:40:42.650Z,20.40
2019-02-20T17:43:11.812Z,18.00
2019-02-20T17:45:40.539Z,20.13
2019-02-20T17:48:09.268Z,21.03
2019-02-20T17:50:38.489Z,19.37
2019-02-20T17:53:07.203Z,19.97
2019-02-20T17:55:36.246Z,24.77
2019-02-20T17:58:05.383Z,23.23
2019-02-20T18:00:34.114Z,24.20
2019-02-20T18:03:02.849Z,21.00
2019-02-20T18:05:31.845Z,20.07
2019-02-20T18:08:00.560Z,20.03
2019-02-20T18:10:29.292Z,21.63
2019-02-20T18:12:58.183Z,21.17
2019-02-20T18:15:26.910Z,20.30
2019-02-20T18:17:55.662Z,17.43
2019-02-20T18:20:25.219Z,18.37
2019-02-20T18:22:54.102Z,22.47
2019-02-20T18:25:22.957Z,19.13
2019-02-20T18:27:51.738Z,24.40
2019-02-20T18:30:20.489Z,20.80
2019-02-20T18:32:49.221Z,21.30
2019-02-20T18:35:19.663Z,28.37
2019-02-20T18:37:48.380Z,33.63
2019-02-20T18:40:17.701Z,25.17
2019-02-20T18:42:46.563Z,17.43
2019-02-20T18:45:16.164Z,51.57
2019-02-20T18:47:44.921Z,26.80
2019-02-20T18:50:15.182Z,37.07
2019-02-20T18:52:44.012Z,40.47
2019-02-20T18:55:13.949Z,43.33
2019-02-20T18:57:43.250Z,35.20
2019-02-20T19:00:17.200Z,32.17
2019-02-20T19:02:45.907Z,21.93
2019-02-20T19:05:15.133Z,24.57
2019-02-20T19:07:43.969Z,24.43
2019-02-20T19:10:35.477Z,20.80
2019-02-20T19:13:12.921Z,21.60
2019-02-20T19:15:47.649Z,15.10
2019-02-20T19:18:37.253Z,18.40
2019-02-20T19:21:34.665Z,18.00
2019-02-20T19:24:15.289Z,18.37
2019-02-20T19:26:55.942Z,15.63
2019-02-20T19:29:47.072Z,13.97
2019-02-20T19:32:27.670Z,11.67
2019-02-20T19:35:26.699Z,10.87
2019-02-20T19:38:16.727Z,11.37
2019-02-20T19:41:07.985Z,12.07
2019-02-20T19:43:53.501Z,9.27
2019-02-20T19:46:45.692Z,11.37
2019-02-20T19:49:33.877Z,10.73
2019-02-20T19:52:05.582Z,14.00
2019-02-20T19:54:43.562Z,13.97
2019-02-20T19:57:21.207Z,14.63
2019-02-20T20:00:01.999Z,13.73
2019-02-20T20:02:42.735Z,12.10
2019-02-20T20:05:35.841Z,12.57
2019-02-20T20:08:16.616Z,11.37
2019-02-20T20:10:54.527Z,15.50
2019-02-20T20:13:26.166Z,15.47
2019-02-20T20:16:12.907Z,22.70
2019-02-20T20:19:13.745Z,20.63
2019-02-20T20:22:02.092Z,96.13
2019-02-20T20:24:36.612Z,14.50
2019-02-20T20:27:28.405Z,18.50
2019-02-20T20:30:11.425Z,15.63
2019-02-20T20:32:53.802Z,17.30
2019-02-20T20:35:49.607Z,12.70
2019-02-20T20:38:30.322Z,13.83
2019-02-20T20:41:20.034Z,11.20
2019-02-20T20:44:13.215Z,11.00
2019-02-20T20:46:50.577Z,12.97
2019-02-20T20:49:22.310Z,11.90
2019-02-20T20:52:13.330Z,11.57
2019-02-20T20:55:06.317Z,12.43
2019-02-20T20:57:43.986Z,12.00
2019-02-20T21:00:42.910Z,8.93
2019-02-20T21:03:14.561Z,13.53
2019-02-20T21:05:52.149Z,10.10
2019-02-20T21:08:23.798Z,16.00
2019-02-20T21:11:01.452Z,12.17
2019-02-20T21:13:53.724Z,12.80
2019-02-20T21:17:00.001Z,13.40
2019-02-20T21:19:53.971Z,16.53
2019-02-20T21:22:55.694Z,12.50
2019-02-20T21:25:36.029Z,12.60
2019-02-20T21:28:19.673Z,14.20
2019-02-20T21:31:05.653Z,11.80
2019-02-20T21:33:53.667Z,12.53
2019-02-20T21:36:40.003Z,11.37
2019-02-20T21:39:27.055Z,12.47
2019-02-20T21:41:58.698Z,11.77
2019-02-20T21:44:36.442Z,13.60
2019-02-20T21:47:08.083Z,11.33
2019-02-20T21:49:44.064Z,10.17
2019-02-20T21:52:19.990Z,10.57
2019-02-20T21:55:14.972Z,12.40
2019-02-20T21:58:04.179Z,13.07
2019-02-20T22:00:35.991Z,10.47
2019-02-20T22:03:10.315Z,15.07
2019-02-20T22:06:00.513Z,11.00
2019-02-20T22:08:46.797Z,12.03
2019-02-20T22:11:25.092Z,11.30
2019-02-20T22:14:17.840Z,12.37
2019-02-20T22:17:24.722Z,15.73
2019-02-20T22:20:14.658Z,16.63
2019-02-20T22:22:58.396Z,15.93
2019-02-20T22:25:47.445Z,17.93
2019-02-20T22:28:38.187Z,16.83
2019-02-20T22:31:35.627Z,16.00
2019-02-20T22:34:34.095Z,15.90
2019-02-20T22:37:27.028Z,16.17
2019-02-20T22:39:59.022Z,16.47
2019-02-20T22:42:30.676Z,14.97
2019-02-20T22:45:17.730Z,13.90
2019-02-20T22:47:52.258Z,14.97
2019-02-20T22:50:40.766Z,14.80
2019-02-20T22:53:12.405Z,12.87
2019-02-20T22:55:49.829Z,13.83
2019-02-20T22:58:24.397Z,15.80
2019-02-20T23:01:05.451Z,13.03
2019-02-20T23:03:52.210Z,14.33
2019-02-20T23:06:51.034Z,14.30
2019-02-20T23:09:31.710Z,15.63
2019-02-20T23:12:09.375Z,15.37
2019-02-20T23:14:56.068Z,14.97
2019-02-20T23:17:26.941Z,15.53
2019-02-20T23:19:55.723Z,14.57
2019-02-20T23:22:24.432Z,13.93
2019-02-20T23:24:53.307Z,14.80
2019-02-20T23:27:22.027Z,14.57
2019-02-20T23:29:50.746Z,14.13
2019-02-20T23:32:19.962Z,14.70
2019-02-20T23:34:48.697Z,13.60
2019-02-20T23:37:17.440Z,13.70
2019-02-20T23:39:46.726Z,14.00
2019-02-20T23:42:15.454Z,16.30
2019-02-20T23:44:44.176Z,15.10
2019-02-20T23:47:12.958Z,15.43
2019-02-20T23:49:41.687Z,14.67
2019-02-20T23:52:10.407Z,12.53
2019-02-20T23:54:39.229Z,12.97
2019-02-20T23:57:07.981Z,14.33
2019-02-20T23:59:36.703Z,15.67
